createdAt,value
2023-01-19T00:00:18.654Z,6.4
2023-01-19T00:06:38.515Z,6.4
2023-01-19T00:13:02.110Z,5
2023-01-19T00:19:21.787Z,5
2023-01-19T00:25:44.576Z,4.4
2023-01-19T00:32:04.596Z,4.4
2023-01-19T00:38:27.661Z,4.9
2023-01-19T00:44:47.756Z,4.9
2023-01-19T00:51:10.531Z,3.3
2023-01-19T00:57:30.584Z,3.3
2023-01-19T01:03:53.499Z,4
2023-01-19T01:10:13.603Z,4
2023-01-19T01:16:36.599Z,4.8
2023-01-19T01:22:56.784Z,4.8
2023-01-19T01:29:19.641Z,6.1
2023-01-19T01:35:39.689Z,6.1
2023-01-19T01:42:02.664Z,5.1
2023-01-19T01:48:22.629Z,5.1
2023-01-19T01:54:45.660Z,2.2
2023-01-19T02:01:05.640Z,2.2
2023-01-19T02:07:28.752Z,2.9
2023-01-19T02:13:48.712Z,2.9
2023-01-19T02:20:11.577Z,2.9
2023-01-19T02:26:31.560Z,2.9
2023-01-19T02:32:54.593Z,4.4
2023-01-19T02:39:14.500Z,4.4
2023-01-19T02:45:37.773Z,3
2023-01-19T02:51:57.617Z,3
2023-01-19T02:58:20.647Z,3
2023-01-19T03:04:40.781Z,3
2023-01-19T03:11:03.678Z,3.6
2023-01-19T03:17:23.517Z,3.6
2023-01-19T03:23:46.559Z,3.4
2023-01-19T03:30:06.621Z,3.4
2023-01-19T03:36:29.517Z,2.9
2023-01-19T03:42:49.582Z,2.9
2023-01-19T03:49:12.653Z,4.9
2023-01-19T03:55:32.661Z,4.9
2023-01-19T04:01:55.690Z,3.6
2023-01-19T04:25:19.047Z,6.5
2023-01-19T04:31:38.515Z,6.5
2023-01-19T04:38:01.501Z,6.5
2023-01-19T04:44:21.560Z,6.5
2023-01-19T04:50:44.506Z,3
2023-01-19T04:57:04.513Z,3
2023-01-19T05:03:27.648Z,2.3
2023-01-19T05:09:47.491Z,2.3
2023-01-19T05:16:11.036Z,3.3
2023-01-19T05:22:30.759Z,3.3
2023-01-19T05:28:53.608Z,4.4
2023-01-19T05:35:13.644Z,4.4
2023-01-19T05:41:36.566Z,3.4
2023-01-19T05:47:56.584Z,3.4
2023-01-19T05:54:19.503Z,3.5
2023-01-19T06:00:39.496Z,3.5
2023-01-19T06:07:02.524Z,4.7
2023-01-19T06:13:22.527Z,4.7
2023-01-19T06:19:45.675Z,6.9
2023-01-19T06:26:05.599Z,6.9
2023-01-19T06:32:28.511Z,3.1
2023-01-19T06:38:48.739Z,3.1
2023-01-19T06:45:11.513Z,4.8
2023-01-19T06:51:31.526Z,4.8
2023-01-19T06:57:54.574Z,3.9
2023-01-19T07:04:14.597Z,3.9
2023-01-19T07:11:22.576Z,4.7
2023-01-19T07:16:57.935Z,4.7
2023-01-19T07:23:20.624Z,5.3
2023-01-19T07:29:40.527Z,5.3
2023-01-19T07:36:03.613Z,6.4
2023-01-19T07:42:23.544Z,6.4
2023-01-19T07:48:46.714Z,2.8
2023-01-19T07:55:06.739Z,2.8
2023-01-19T08:01:29.769Z,2.5
2023-01-19T08:07:49.660Z,2.5
2023-01-19T08:14:12.698Z,3.7
2023-01-19T08:20:32.503Z,3.7
2023-01-19T08:26:55.684Z,7.8
2023-01-19T08:33:15.605Z,7.8
2023-01-19T08:39:38.499Z,5.2
2023-01-19T08:45:58.619Z,5.2
2023-01-19T08:52:21.589Z,2.9
2023-01-19T08:58:41.509Z,2.9
2023-01-19T09:05:04.680Z,3.1
2023-01-19T09:28:36.465Z,4
2023-01-19T09:34:56.528Z,4
2023-01-19T09:41:19.715Z,5.1
2023-01-19T09:47:39.783Z,5.1
2023-01-19T09:54:03.044Z,3.6
2023-01-19T10:00:22.780Z,3.6
2023-01-19T10:06:47.767Z,2.9
2023-01-19T10:13:05.753Z,2.9
2023-01-19T10:19:28.559Z,4.5
2023-01-19T10:25:48.578Z,4.5
2023-01-19T10:32:11.703Z,7
2023-01-19T10:38:31.515Z,7
2023-01-19T10:44:54.706Z,3.7
2023-01-19T10:51:14.527Z,3.7
2023-01-19T10:57:37.698Z,4.7
2023-01-19T11:03:57.562Z,4.7
2023-01-19T11:10:20.721Z,4.9
2023-01-19T11:16:40.586Z,4.9
2023-01-19T11:23:03.893Z,3.8
2023-01-19T11:29:23.671Z,3.8
2023-01-19T11:35:46.690Z,4.3
2023-01-19T11:42:06.940Z,4.3
2023-01-19T11:48:29.539Z,5.7
2023-01-19T11:54:49.540Z,5.7
2023-01-19T12:01:12.610Z,6.4
2023-01-19T12:07:32.587Z,6.4
2023-01-19T12:13:55.604Z,4.2
2023-01-19T12:20:15.613Z,4.2
2023-01-19T12:26:38.575Z,4.1
2023-01-19T12:32:58.506Z,4.1
2023-01-19T12:39:21.695Z,5
2023-01-19T12:45:41.684Z,5
2023-01-19T12:52:04.629Z,3.5
2023-01-19T12:58:24.718Z,3.5
2023-01-19T13:04:47.657Z,4.5
2023-01-19T13:11:07.698Z,4.5
2023-01-19T13:17:30.662Z,4.2
2023-01-19T13:23:50.542Z,4.2
2023-01-19T13:30:13.508Z,3.8
2023-01-19T13:36:33.610Z,3.8
2023-01-19T13:42:56.653Z,2.5
2023-01-19T13:49:16.593Z,2.5
2023-01-19T13:55:39.690Z,4.2
2023-01-19T14:01:59.641Z,4.2
2023-01-19T14:08:22.577Z,5
2023-01-19T14:25:24.089Z,5.5
2023-01-19T14:31:46.031Z,7.7
2023-01-19T14:38:05.503Z,7.7
2023-01-19T14:44:28.630Z,7.7
2023-01-19T14:51:02.288Z,7.7
2023-01-19T14:57:11.527Z,3.4
2023-01-19T15:03:42.602Z,3.4
2023-01-19T15:09:54.685Z,2.7
2023-01-19T15:16:14.742Z,2.7
2023-01-19T15:22:37.535Z,7.6
2023-01-19T15:28:57.544Z,7.6
2023-01-19T15:35:20.644Z,6.4
2023-01-19T15:41:40.704Z,6.4
2023-01-19T15:48:03.818Z,4.1
2023-01-19T15:54:23.840Z,4.1
2023-01-19T16:00:46.620Z,6.7
2023-01-19T16:07:06.533Z,6.7
2023-01-19T16:13:29.571Z,4
2023-01-19T16:19:49.570Z,4
2023-01-19T16:26:12.659Z,4.5
2023-01-19T16:32:32.594Z,4.5
2023-01-19T16:38:55.638Z,5.8
2023-01-19T16:45:15.554Z,5.8
2023-01-19T16:51:38.539Z,3.2
2023-01-19T16:57:58.525Z,3.2
2023-01-19T17:04:21.560Z,2.7
2023-01-19T17:10:41.491Z,2.7
2023-01-19T17:17:04.709Z,2.7
2023-01-19T17:23:24.699Z,2.7
2023-01-19T17:29:49.779Z,5.9
2023-01-19T17:36:07.644Z,5.9
2023-01-19T17:42:30.659Z,5.9
2023-01-19T17:48:50.579Z,5.9
2023-01-19T17:55:13.648Z,3.7
2023-01-19T18:01:33.600Z,3.7
2023-01-19T18:07:56.663Z,3.5
2023-01-19T18:14:16.580Z,3.5
2023-01-19T18:20:39.497Z,3.4
2023-01-19T18:26:59.857Z,3.4
2023-01-19T18:33:22.992Z,5.2
2023-01-19T18:39:42.596Z,5.2
2023-01-19T18:46:05.752Z,4.1
2023-01-19T18:52:25.732Z,4.1
2023-01-19T18:58:48.687Z,5.4
2023-01-19T19:05:08.489Z,5.4
2023-01-19T19:11:31.570Z,6.2
2023-01-19T19:35:14.438Z,5
2023-01-19T19:41:34.494Z,5
2023-01-19T19:47:57.516Z,5.4
2023-01-19T19:54:17.539Z,5.4
2023-01-19T20:00:40.631Z,5
2023-01-19T20:07:00.602Z,5
2023-01-19T20:13:23.685Z,7.5
2023-01-19T20:19:43.684Z,7.5
2023-01-19T20:26:06.531Z,7.4
2023-01-19T20:32:26.658Z,7.4
2023-01-19T20:38:49.629Z,5.4
2023-01-19T20:45:09.631Z,5.4
2023-01-19T20:51:32.532Z,6.2
2023-01-19T20:57:52.519Z,6.2
2023-01-19T21:04:15.542Z,8.6
2023-01-19T21:10:35.701Z,8.6
2023-01-19T21:16:58.606Z,4.1
2023-01-19T21:23:18.744Z,4.1
2023-01-19T21:29:41.790Z,7.7
2023-01-19T21:36:02.017Z,7.7
2023-01-19T21:42:24.681Z,3.9
2023-01-19T21:48:44.684Z,3.9
2023-01-19T21:55:07.695Z,7.2
2023-01-19T22:01:27.764Z,7.2
2023-01-19T22:07:50.702Z,5.3
2023-01-19T22:14:10.697Z,5.3
2023-01-19T22:20:33.524Z,6
2023-01-19T22:26:53.552Z,6
2023-01-19T22:33:16.602Z,4.6
2023-01-19T22:39:36.567Z,4.6
2023-01-19T22:45:59.680Z,6.2
2023-01-19T22:52:19.559Z,6.2
2023-01-19T22:58:42.587Z,5.9
2023-01-19T23:22:56.549Z,16.1
2023-01-19T23:29:16.506Z,16.1
2023-01-19T23:35:39.477Z,16.1
2023-01-19T23:41:59.569Z,16.1
2023-01-19T23:48:22.759Z,5
2023-01-19T23:54:42.710Z,5
